Terminal Aerodrome Forecast
Issued by NWS

Home | Current Version | Previous Version | Text Only | Print | Product List | Glossary On
Versions: 1 2 3 4 5 6 7 8 9 10 11 12 13 14
037
FTUS45 KPIH 191120
TAFSUN
TAF
KSUN 191120Z 1912/2012 VRB05KT 3/4SM -SN BR OVC005
      TEMPO 1912/1916 2SM -SN OVC010
     FM191600 12006KT 1SM -SN BR OVC005
     FM192100 12006KT 5SM BR OVC005
     FM200300 32006KT 4SM BR VCSH BKN005
      AMD LTD TO CLD VIS AND WIND TIL 191400=

USA.gov is the U.S. government's official web portal to all federal, state and local government web resources and services.